Accueil
METAR-TAF:

METAR-TAF

Aéroports :

Aéroport international de Wilkes-Barre/Scranton

Wilkes-Barre / Scranton, Pennsylvanie, États-Unis

latitude: 41-20-20N, longitude: 075-43-36W, altitude: 293 m

Observation

Le bulletin a été fait il y a 50 minutes, à 22:54 UTC
Vent 9 kt de nord
Température 27°C
Humidité 45%
Pression 1010 hPa
Visibilité: 16.1 km
Ciel clair

METAR: KAVP 212254Z 35009KT 10SM CLR 27/14 A2982 RMK AO2 SLP088 T02670144

Heure: 19:44 (23:44 UTC)

Prévision

Le bulletin a été fait il y a 24 minutes, à 23:20 UTC
Prévision valable du 22 à 00 UTC au 22 à 24 UTC
Vent 4 kt de est/nord-est
Visibilité: 10 km
Nuages fragmentés à une hauteur de 25000 ft
A partir de 22 à 1400 UTC
Vent 6 kt de sud-est
Visibilité: 10 km
Nuages fragmentés à une hauteur de 4000 ft
Ciel couvert à une hauteur de 10000 ft

TAF: KAVP 212320Z 2200/2224 07004KT P6SM BKN250 FM221400 13006KT P6SM BKN040 OVC100

Observations et prévisions météorologiques de plus de 4000 aéroports (messages METAR et TAF).

Les stations disponibles sont représentées par des disques jaunes et rouges sur la carte.

Passer la souris dessus pour voir le nom de la station.

Cliquer dessus pour voir les observations et prévisions météorologiques.

Pour changer de carte: cliquez sur les boutons verts avec une croix noire pour zoomer, sur le bouton vert avec un tiret pour effectuer un zoom arrière, ou sur les flèches vertes pour les cartes adjacentes.


METAR-TAF: